コロンボ の空港の天気 - METARとTAF

バンダラナイケ国際空港 ( VCBI / CMB ) - スリランカ コロンボ
飛行場実況気象(Metar)
観測時間10/24 07:40 IST (10/24 02:10 UTC)
風向・風速南東 3m/s
視程9000m
天気現象
全天の8割程度の雲 雲底高度 490m
少しの雲 雲底高度 550m
気温25℃
湿度94%
気圧1012hPa
METARVCBI 240210Z 14005KT 9000 BKN016 FEW018CB 25/24 Q1012 NOSIG RMK NW
過去の天気等 Google飛行場航空写真 Wunderground天気予報

過去48時間のMETAR

飛行場予報(TAF)
発表時間: 10/24 04:30 IST (10/23 23:00 UTC)
予報対象時間: 24日5時 IST ~ 25日11時 IST
風向・風速不定 3m/s
視程10km以上
全天の4割程度の雲 雲底高度 550m
24日14時 IST ~ 24日21時 IST に 確率 30% で一時的に
視程6000m
TAF VCBI 232300Z 2400/2506 VRB05KT 9999 SCT018 TX30/2408Z TN24/2500Z
PROB30 TEMPO 2409/2416 6000 -TSRA/SHRA FEW012 BKN016 FEW020CB